createdAt,value
2023-04-08T00:01:22.987Z,20.97
2023-04-08T00:03:49.703Z,22.90
2023-04-08T00:06:16.293Z,24.10
2023-04-08T00:08:42.788Z,23.77
2023-04-08T00:11:09.222Z,22.50
2023-04-08T00:13:35.787Z,20.83
2023-04-08T00:16:03.196Z,24.00
2023-04-08T00:18:29.668Z,23.13
2023-04-08T00:20:57.287Z,22.00
2023-04-08T00:23:23.848Z,25.17
2023-04-08T00:25:51.018Z,25.10
2023-04-08T00:28:17.500Z,25.13
2023-04-08T00:30:43.937Z,26.47
2023-04-08T00:33:10.476Z,25.47
2023-04-08T00:35:37.144Z,24.17
2023-04-08T00:38:04.256Z,24.67
2023-04-08T00:40:30.765Z,24.80
2023-04-08T00:42:58.234Z,25.20
2023-04-08T00:45:24.736Z,26.80
2023-04-08T00:47:52.748Z,27.20
2023-04-08T00:50:20.322Z,27.67
2023-04-08T00:52:46.886Z,30.80
2023-04-08T00:55:13.352Z,29.80
2023-04-08T00:57:39.956Z,29.67
2023-04-08T01:00:06.981Z,29.30
2023-04-08T01:02:56.917Z,27.67
2023-04-08T01:06:01.925Z,30.17
2023-04-08T01:08:31.352Z,31.80
2023-04-08T01:11:01.991Z,30.93
2023-04-08T01:13:31.498Z,28.17
2023-04-08T01:15:58.192Z,27.73
2023-04-08T01:18:24.928Z,32.47
2023-04-08T01:20:53.643Z,31.93
2023-04-08T01:23:38.728Z,33.80
2023-04-08T01:26:05.193Z,31.63
2023-04-08T01:28:34.014Z,36.70
2023-04-08T01:31:02.419Z,33.97
2023-04-08T01:33:30.665Z,34.27
2023-04-08T01:35:58.923Z,35.63
2023-04-08T01:38:27.185Z,35.30
2023-04-08T01:40:55.838Z,35.63
2023-04-08T01:43:23.387Z,34.47
2023-04-08T01:45:54.377Z,38.20
2023-04-08T01:48:21.381Z,36.40
2023-04-08T01:50:48.844Z,34.70
2023-04-08T01:53:15.430Z,35.30
2023-04-08T01:55:43.233Z,36.00
2023-04-08T01:58:17.175Z,36.80
2023-04-08T02:00:44.598Z,36.67
2023-04-08T02:03:12.681Z,37.80
2023-04-08T02:05:40.250Z,38.37
2023-04-08T02:08:06.818Z,36.37
2023-04-08T02:10:33.284Z,37.90
2023-04-08T02:12:59.994Z,40.27
2023-04-08T02:15:29.023Z,36.80
2023-04-08T02:18:00.781Z,38.67
2023-04-08T02:20:34.649Z,38.00
2023-04-08T02:23:20.668Z,39.33
2023-04-08T02:25:48.240Z,39.77
2023-04-08T02:28:17.835Z,40.20
2023-04-08T02:30:51.375Z,39.13
2023-04-08T02:33:24.136Z,38.90
2023-04-08T02:35:54.490Z,40.63
2023-04-08T02:38:21.573Z,41.23
2023-04-08T02:40:50.405Z,41.57
2023-04-08T02:43:16.929Z,42.47
2023-04-08T02:45:44.695Z,41.57
2023-04-08T02:48:11.207Z,40.93
2023-04-08T02:50:37.881Z,44.93
2023-04-08T02:53:04.363Z,40.70
2023-04-08T02:55:31.031Z,40.43
2023-04-08T02:57:57.451Z,44.50
2023-04-08T03:00:23.944Z,42.23
2023-04-08T03:02:50.485Z,40.30
2023-04-08T03:05:17.457Z,42.10
2023-04-08T03:07:43.878Z,38.77
2023-04-08T03:10:10.842Z,43.60
2023-04-08T03:12:37.404Z,43.47
2023-04-08T03:15:04.206Z,40.30
2023-04-08T03:17:33.668Z,43.57
2023-04-08T03:20:01.280Z,42.07
2023-04-08T03:22:27.766Z,42.10
2023-04-08T03:24:54.220Z,41.80
2023-04-08T03:27:20.673Z,39.27
2023-04-08T03:29:47.794Z,38.53
2023-04-08T03:32:14.544Z,39.30
2023-04-08T03:34:41.318Z,39.77
2023-04-08T03:37:08.216Z,38.10
2023-04-08T03:39:34.721Z,40.73
2023-04-08T03:42:02.993Z,38.87
2023-04-08T03:44:29.617Z,39.10
2023-04-08T03:46:56.112Z,36.80
2023-04-08T03:49:22.723Z,37.30
2023-04-08T03:51:49.129Z,36.60
2023-04-08T03:54:15.896Z,36.43
2023-04-08T03:56:42.390Z,37.03
2023-04-08T03:59:08.860Z,38.50
2023-04-08T04:01:35.421Z,36.20
2023-04-08T04:04:02.075Z,35.33
2023-04-08T04:06:28.829Z,35.47
2023-04-08T04:08:55.604Z,37.30
2023-04-08T04:11:22.534Z,33.60
2023-04-08T04:13:49.164Z,34.47
2023-04-08T04:16:15.744Z,35.03
2023-04-08T04:18:42.404Z,34.60
2023-04-08T04:21:08.816Z,35.13
2023-04-08T04:23:35.302Z,34.03
2023-04-08T04:26:01.758Z,33.97
2023-04-08T04:28:28.252Z,32.90
2023-04-08T04:30:56.372Z,32.73
2023-04-08T04:33:23.098Z,34.77
2023-04-08T04:35:49.578Z,31.17
2023-04-08T04:38:16.225Z,34.33
2023-04-08T04:40:42.697Z,32.80
2023-04-08T04:43:09.164Z,31.30
2023-04-08T04:45:36.008Z,33.47
2023-04-08T04:48:03.567Z,33.30
2023-04-08T04:50:30.473Z,31.60
2023-04-08T04:52:57.073Z,32.10
2023-04-08T04:55:23.498Z,31.97
2023-04-08T04:57:49.906Z,31.50
2023-04-08T05:00:17.081Z,31.73
2023-04-08T05:02:43.980Z,32.27
2023-04-08T05:05:10.941Z,30.70
2023-04-08T05:07:38.243Z,29.07
2023-04-08T05:10:06.032Z,29.10
2023-04-08T05:12:32.673Z,30.30
2023-04-08T05:15:02.150Z,31.53
2023-04-08T05:17:28.668Z,30.47
2023-04-08T05:19:55.117Z,28.20
2023-04-08T05:22:21.881Z,27.30
2023-04-08T05:24:48.919Z,30.27
2023-04-08T05:27:15.644Z,27.80
2023-04-08T05:29:42.413Z,29.27
2023-04-08T05:32:08.805Z,29.30
2023-04-08T05:34:35.456Z,30.40
2023-04-08T05:37:01.923Z,30.27
2023-04-08T05:39:28.575Z,30.10
2023-04-08T05:41:55.191Z,28.83
2023-04-08T05:44:21.641Z,28.17
2023-04-08T05:46:48.137Z,32.00
2023-04-08T05:49:15.719Z,28.60
2023-04-08T05:51:42.257Z,30.17
2023-04-08T05:54:09.162Z,27.80
2023-04-08T05:56:36.072Z,26.73
2023-04-08T05:59:02.504Z,30.00
2023-04-08T06:01:29.087Z,29.60
2023-04-08T06:03:58.562Z,28.73
2023-04-08T06:06:28.019Z,28.77
2023-04-08T06:08:54.469Z,30.53
2023-04-08T06:11:21.014Z,31.27
2023-04-08T06:13:48.061Z,33.73
2023-04-08T06:16:21.125Z,33.10
2023-04-08T06:18:48.341Z,31.70
2023-04-08T06:21:15.299Z,31.00
2023-04-08T06:23:41.732Z,30.97
2023-04-08T06:26:08.313Z,31.87
2023-04-08T06:28:34.798Z,31.67
2023-04-08T06:31:01.384Z,30.33
2023-04-08T06:33:27.883Z,30.70
2023-04-08T06:36:13.338Z,30.80
2023-04-08T06:38:39.780Z,31.70
2023-04-08T06:41:07.453Z,33.97
2023-04-08T06:43:35.081Z,31.90
2023-04-08T06:46:01.595Z,30.20
2023-04-08T06:48:30.293Z,30.07
2023-04-08T06:50:57.670Z,32.87
2023-04-08T06:53:24.944Z,33.60
2023-04-08T06:55:51.879Z,32.47
2023-04-08T06:58:18.729Z,37.10
2023-04-08T07:00:45.305Z,36.40
2023-04-08T07:03:11.983Z,35.13
2023-04-08T07:05:38.840Z,35.60
2023-04-08T07:08:06.450Z,37.57
2023-04-08T07:10:32.957Z,36.93
2023-04-08T07:12:59.389Z,36.97
2023-04-08T07:15:25.955Z,36.63
2023-04-08T07:17:52.462Z,38.63
2023-04-08T07:20:19.185Z,36.70
2023-04-08T07:22:45.776Z,36.93
2023-04-08T07:25:12.343Z,42.30
2023-04-08T07:27:38.833Z,44.03
2023-04-08T07:30:06.017Z,43.97
2023-04-08T07:32:33.918Z,46.60
2023-04-08T07:35:01.585Z,46.57
2023-04-08T07:37:28.337Z,48.10
2023-04-08T07:39:55.148Z,53.70
2023-04-08T07:42:22.005Z,59.00
2023-04-08T07:44:48.471Z,59.33
2023-04-08T07:47:14.890Z,60.03
2023-04-08T07:49:41.485Z,59.17
2023-04-08T07:52:07.973Z,58.97
2023-04-08T07:54:34.491Z,59.40
2023-04-08T07:57:02.142Z,63.97
2023-04-08T07:59:29.343Z,58.83
2023-04-08T08:01:55.857Z,62.03
2023-04-08T08:04:25.725Z,62.03
2023-04-08T08:06:52.400Z,59.37
2023-04-08T08:09:18.930Z,58.97
2023-04-08T08:11:45.441Z,57.33
2023-04-08T08:14:13.806Z,60.30
2023-04-08T08:16:40.493Z,58.60
2023-04-08T08:19:08.730Z,52.20
2023-04-08T08:21:39.390Z,54.10
2023-04-08T08:24:06.574Z,53.57
2023-04-08T08:26:39.045Z,52.03
2023-04-08T08:29:06.563Z,51.90
2023-04-08T08:31:33.012Z,49.40
2023-04-08T08:33:59.453Z,49.03
2023-04-08T08:36:27.416Z,52.73
2023-04-08T08:38:54.241Z,49.63
2023-04-08T08:41:21.483Z,50.57
2023-04-08T08:43:48.880Z,50.17
2023-04-08T08:46:18.286Z,51.00
2023-04-08T08:48:45.856Z,50.47
2023-04-08T08:51:13.361Z,49.43
2023-04-08T08:53:44.946Z,50.27
2023-04-08T08:58:41.583Z,47.13
2023-04-08T09:01:34.398Z,46.63
2023-04-08T09:04:20.113Z,47.50
2023-04-08T09:06:50.068Z,48.37
2023-04-08T09:09:17.778Z,46.00
2023-04-08T09:11:46.478Z,48.07
2023-04-08T09:14:24.073Z,44.87
2023-04-08T09:16:52.024Z,47.80
2023-04-08T09:19:18.863Z,46.23
2023-04-08T09:21:45.868Z,48.50
2023-04-08T09:24:29.065Z,48.33
2023-04-08T09:26:56.512Z,47.83
2023-04-08T09:29:31.150Z,49.00
2023-04-08T09:32:01.465Z,45.17
2023-04-08T09:34:32.491Z,49.10
2023-04-08T09:36:59.019Z,42.93
2023-04-08T09:39:25.688Z,43.00
2023-04-08T09:41:52.941Z,40.97
2023-04-08T09:44:21.756Z,41.87
2023-04-08T09:46:52.481Z,41.20
2023-04-08T09:49:27.415Z,42.93
2023-04-08T09:52:20.879Z,44.70
2023-04-08T09:55:04.744Z,44.30
2023-04-08T09:58:01.345Z,44.10
2023-04-08T10:00:53.222Z,43.93
2023-04-08T10:03:40.904Z,40.83
2023-04-08T10:06:10.405Z,40.60
2023-04-08T10:08:37.014Z,41.93
2023-04-08T10:11:03.637Z,40.80
2023-04-08T10:13:30.505Z,43.30
2023-04-08T10:16:27.641Z,41.10
2023-04-08T10:18:58.095Z,40.47
2023-04-08T10:21:31.544Z,41.10
2023-04-08T10:24:00.922Z,39.60
2023-04-08T10:26:33.623Z,38.07
2023-04-08T10:29:18.639Z,34.90
2023-04-08T10:31:46.270Z,36.73
2023-04-08T10:34:19.976Z,37.00
2023-04-08T10:36:46.870Z,39.30
2023-04-08T10:39:14.690Z,36.40
2023-04-08T10:41:49.492Z,37.60
2023-04-08T10:44:21.276Z,39.70
2023-04-08T10:46:49.462Z,39.03
2023-04-08T10:49:17.442Z,37.47
2023-04-08T10:51:44.845Z,38.10
2023-04-08T10:54:13.671Z,34.97
2023-04-08T10:56:46.612Z,34.70
2023-04-08T10:59:16.851Z,41.43
2023-04-08T11:01:45.329Z,31.03
2023-04-08T11:04:18.443Z,26.77
2023-04-08T11:06:47.369Z,21.27
2023-04-08T11:09:14.417Z,19.93
2023-04-08T11:11:45.287Z,19.97
2023-04-08T11:14:12.923Z,21.53
2023-04-08T11:16:39.609Z,22.20
2023-04-08T11:19:07.694Z,20.87
2023-04-08T11:21:37.565Z,21.70
2023-04-08T11:24:10.019Z,19.50
2023-04-08T11:26:37.292Z,19.57
2023-04-08T11:29:04.433Z,16.33
2023-04-08T11:31:34.575Z,14.53
2023-04-08T11:34:01.167Z,13.47
2023-04-08T11:36:30.046Z,13.70
2023-04-08T11:38:57.005Z,13.40
2023-04-08T11:41:23.825Z,13.97
2023-04-08T11:43:55.157Z,14.37
2023-04-08T11:46:22.324Z,14.90
2023-04-08T11:49:06.547Z,15.23
2023-04-08T11:51:34.810Z,15.17
2023-04-08T11:54:06.539Z,15.30
2023-04-08T11:56:44.906Z,13.70
2023-04-08T11:59:11.470Z,13.57
2023-04-08T12:01:38.029Z,13.87
2023-04-08T12:04:05.759Z,13.27
2023-04-08T12:06:32.349Z,12.40
2023-04-08T12:08:59.759Z,11.37
2023-04-08T12:11:26.309Z,11.70
2023-04-08T12:13:53.272Z,11.63
2023-04-08T12:16:20.625Z,12.17
2023-04-08T12:18:47.668Z,10.60
2023-04-08T12:21:14.219Z,10.70
2023-04-08T12:23:40.726Z,10.97
2023-04-08T12:26:07.980Z,10.07
2023-04-08T12:28:37.306Z,10.97
2023-04-08T12:31:04.121Z,10.20
2023-04-08T12:33:31.315Z,10.07
2023-04-08T12:35:59.106Z,11.67
2023-04-08T12:38:27.067Z,12.63
2023-04-08T12:40:54.007Z,10.30
2023-04-08T12:43:21.009Z,9.37
2023-04-08T12:45:48.997Z,8.40
2023-04-08T12:48:15.589Z,8.50
2023-04-08T12:50:42.167Z,9.47
2023-04-08T12:53:08.707Z,8.83
2023-04-08T12:55:35.292Z,9.13
2023-04-08T12:58:01.808Z,11.93
2023-04-08T13:00:28.291Z,9.60
2023-04-08T13:02:54.868Z,11.90
2023-04-08T13:05:29.473Z,8.77
2023-04-08T13:07:59.546Z,7.40
2023-04-08T13:10:26.613Z,7.97
2023-04-08T13:12:53.256Z,7.90
2023-04-08T13:15:19.813Z,8.47
2023-04-08T13:17:46.271Z,9.50
2023-04-08T13:20:12.748Z,8.40
2023-04-08T13:22:41.259Z,8.20
2023-04-08T13:25:08.058Z,8.50
2023-04-08T13:27:34.516Z,8.33
2023-04-08T13:30:01.194Z,8.27
2023-04-08T13:32:27.725Z,8.30
2023-04-08T13:34:54.273Z,8.77
2023-04-08T13:37:20.724Z,9.53
2023-04-08T13:39:47.201Z,9.20
2023-04-08T13:42:13.636Z,10.17
2023-04-08T13:44:40.117Z,12.67
2023-04-08T13:47:06.546Z,12.53
2023-04-08T13:49:32.971Z,11.83
2023-04-08T13:51:59.515Z,13.40
2023-04-08T13:54:26.028Z,13.03
2023-04-08T13:56:52.596Z,12.47
2023-04-08T13:59:19.044Z,12.87
2023-04-08T14:01:45.633Z,14.90
2023-04-08T14:04:12.153Z,16.03
2023-04-08T14:06:38.654Z,15.33
2023-04-08T14:09:05.232Z,17.70
2023-04-08T14:11:31.789Z,15.70
2023-04-08T14:13:58.263Z,15.13
2023-04-08T14:16:25.035Z,15.20
2023-04-08T14:18:51.866Z,15.17
2023-04-08T14:21:18.737Z,15.40
2023-04-08T14:23:45.525Z,14.60
2023-04-08T14:26:12.099Z,15.27
2023-04-08T14:28:38.584Z,15.20
2023-04-08T14:31:06.189Z,15.07
2023-04-08T14:33:33.097Z,14.70
2023-04-08T14:36:00.204Z,16.63
2023-04-08T14:38:26.813Z,17.33
2023-04-08T14:40:54.633Z,15.97
2023-04-08T14:43:24.053Z,15.40
2023-04-08T14:45:51.734Z,14.83
2023-04-08T14:48:19.373Z,14.90
2023-04-08T14:50:46.232Z,15.43
2023-04-08T14:53:12.656Z,16.10
2023-04-08T14:55:39.176Z,15.97
2023-04-08T14:58:05.811Z,15.53
2023-04-08T15:00:32.331Z,15.57
2023-04-08T15:02:59.191Z,15.70
2023-04-08T15:05:25.745Z,14.23
2023-04-08T15:07:52.512Z,12.33
2023-04-08T15:10:18.996Z,12.53
2023-04-08T15:12:45.678Z,11.80
2023-04-08T15:15:12.209Z,11.93
2023-04-08T15:17:38.760Z,13.00
2023-04-08T15:20:05.861Z,12.63
2023-04-08T15:22:32.551Z,11.43
2023-04-08T15:24:58.997Z,12.70
2023-04-08T15:27:25.507Z,15.23
2023-04-08T15:29:52.382Z,15.17
2023-04-08T15:32:18.931Z,13.40
2023-04-08T15:34:45.443Z,15.17
2023-04-08T15:37:11.879Z,14.43
2023-04-08T15:39:38.356Z,17.97
2023-04-08T15:42:05.402Z,20.63
2023-04-08T15:44:32.716Z,22.47
2023-04-08T15:46:59.234Z,20.97
2023-04-08T15:49:26.486Z,17.73
2023-04-08T15:51:53.571Z,17.60
2023-04-08T15:54:20.185Z,17.30
2023-04-08T15:56:46.931Z,17.53
2023-04-08T15:59:13.831Z,18.57
2023-04-08T16:01:43.230Z,18.17
2023-04-08T16:04:10.019Z,17.60
2023-04-08T16:06:36.844Z,20.57
2023-04-08T16:09:03.490Z,23.57
2023-04-08T16:11:29.972Z,27.00
2023-04-08T16:13:57.308Z,28.23
2023-04-08T16:16:23.822Z,27.83
2023-04-08T16:18:50.570Z,28.90
2023-04-08T16:21:17.325Z,28.20
2023-04-08T16:23:43.882Z,28.27
2023-04-08T16:26:10.725Z,30.47
2023-04-08T16:28:38.945Z,29.33
2023-04-08T16:31:06.385Z,28.73
2023-04-08T16:33:33.393Z,21.20
2023-04-08T16:36:00.746Z,19.90
2023-04-08T16:38:27.747Z,18.80
2023-04-08T16:40:57.643Z,18.23
2023-04-08T16:43:24.953Z,17.70
2023-04-08T16:45:53.103Z,17.00
2023-04-08T16:48:19.843Z,17.60
2023-04-08T16:50:46.325Z,15.27
2023-04-08T16:53:12.770Z,15.10
2023-04-08T16:55:39.245Z,14.00
2023-04-08T16:58:06.089Z,12.37
2023-04-08T17:00:32.534Z,11.70
2023-04-08T17:02:59.193Z,13.33
2023-04-08T17:05:26.595Z,12.97
2023-04-08T17:07:53.214Z,13.20
2023-04-08T17:10:22.105Z,13.70
2023-04-08T17:12:48.584Z,14.10
2023-04-08T17:15:15.126Z,13.97
2023-04-08T17:17:41.762Z,13.90
2023-04-08T17:20:08.727Z,15.00
2023-04-08T17:22:35.687Z,14.13
2023-04-08T17:25:02.156Z,15.70
2023-04-08T17:27:28.686Z,16.73
2023-04-08T17:29:57.796Z,15.00
2023-04-08T17:32:24.796Z,15.47
2023-04-08T17:34:52.336Z,15.43
2023-04-08T17:37:19.226Z,16.37
2023-04-08T17:39:45.894Z,15.37
2023-04-08T17:42:13.179Z,16.00
2023-04-08T17:44:42.237Z,15.80
2023-04-08T17:47:08.877Z,16.00
2023-04-08T17:49:35.480Z,16.23
2023-04-08T17:52:02.032Z,17.10
2023-04-08T17:54:28.479Z,18.50
2023-04-08T17:56:54.932Z,18.27
2023-04-08T17:59:21.419Z,17.30
2023-04-08T18:01:48.076Z,18.97
2023-04-08T18:04:14.718Z,19.73
2023-04-08T18:06:41.250Z,19.00
2023-04-08T18:09:08.258Z,19.90
2023-04-08T18:11:34.746Z,20.37
2023-04-08T18:14:01.181Z,20.17
2023-04-08T18:16:27.793Z,20.53
2023-04-08T18:18:54.289Z,20.90
2023-04-08T18:21:21.995Z,23.20
2023-04-08T18:23:49.997Z,23.00
2023-04-08T18:26:17.136Z,23.70
2023-04-08T18:28:43.667Z,23.70
2023-04-08T18:31:10.356Z,23.93
2023-04-08T18:33:38.863Z,23.40
2023-04-08T18:36:07.023Z,24.13
2023-04-08T18:38:33.566Z,23.13
2023-04-08T18:41:00.639Z,23.57
2023-04-08T18:43:28.737Z,24.90
2023-04-08T18:45:55.553Z,26.00
2023-04-08T18:48:22.063Z,24.50
2023-04-08T18:50:48.793Z,23.63
2023-04-08T18:53:15.362Z,24.00
2023-04-08T18:55:44.633Z,22.60
2023-04-08T18:58:11.529Z,23.33
2023-04-08T19:00:41.911Z,23.80
2023-04-08T19:03:10.258Z,22.53
2023-04-08T19:05:37.534Z,22.93
2023-04-08T19:08:04.566Z,24.37
2023-04-08T19:10:34.738Z,25.00
2023-04-08T19:13:01.975Z,23.50
2023-04-08T19:15:31.667Z,24.40
2023-04-08T19:17:59.355Z,23.87
2023-04-08T19:20:27.205Z,26.17
2023-04-08T19:22:53.689Z,24.13
2023-04-08T19:25:20.470Z,24.03
2023-04-08T19:27:47.647Z,23.90
2023-04-08T19:30:14.187Z,24.33
2023-04-08T19:32:40.801Z,23.67
2023-04-08T19:35:07.853Z,24.83
2023-04-08T19:37:34.601Z,24.07
2023-04-08T19:40:01.077Z,24.70
2023-04-08T19:42:27.621Z,24.30
2023-04-08T19:44:55.107Z,34.97
2023-04-08T19:47:22.143Z,25.03
2023-04-08T19:49:48.696Z,23.90
2023-04-08T19:52:15.316Z,24.70
2023-04-08T19:54:43.335Z,24.90
2023-04-08T19:57:10.918Z,26.60
2023-04-08T19:59:38.146Z,25.07
2023-04-08T20:02:05.072Z,26.30
2023-04-08T20:04:32.045Z,27.60
2023-04-08T20:07:01.117Z,28.17
2023-04-08T20:09:27.577Z,26.93
2023-04-08T20:11:54.024Z,28.57
2023-04-08T20:14:20.534Z,27.83
2023-04-08T20:16:47.146Z,30.70
2023-04-08T20:19:13.543Z,29.63
2023-04-08T20:21:39.962Z,28.90
2023-04-08T20:24:07.243Z,28.90
2023-04-08T20:26:33.676Z,26.70
2023-04-08T20:29:00.568Z,28.73
2023-04-08T20:31:27.909Z,27.77
2023-04-08T20:33:54.465Z,28.93
2023-04-08T20:36:22.100Z,27.33
2023-04-08T20:38:48.582Z,30.17
2023-04-08T20:41:20.136Z,30.23
2023-04-08T20:43:46.612Z,28.70
2023-04-08T20:46:13.110Z,30.77
2023-04-08T20:48:39.564Z,27.33
2023-04-08T20:51:06.099Z,29.40
2023-04-08T20:53:34.418Z,26.47
2023-04-08T20:56:01.822Z,27.43
2023-04-08T20:58:28.730Z,26.67
2023-04-08T21:00:57.567Z,26.97
2023-04-08T21:03:24.497Z,28.13
2023-04-08T21:05:52.679Z,29.60
2023-04-08T21:08:19.188Z,26.97
2023-04-08T21:10:45.765Z,28.23
2023-04-08T21:13:12.275Z,29.63
2023-04-08T21:15:39.020Z,28.70
2023-04-08T21:18:06.408Z,27.37
2023-04-08T21:20:32.868Z,27.97
2023-04-08T21:23:00.473Z,27.47
2023-04-08T21:25:26.895Z,29.13
2023-04-08T21:27:53.700Z,29.00
2023-04-08T21:30:21.333Z,27.03
2023-04-08T21:32:47.893Z,27.90
2023-04-08T21:35:15.331Z,26.93
2023-04-08T21:37:42.122Z,27.00
2023-04-08T21:40:09.101Z,27.27
2023-04-08T21:42:35.672Z,27.37
2023-04-08T21:45:02.144Z,27.57
2023-04-08T21:47:28.618Z,27.03
2023-04-08T21:49:55.919Z,25.67
2023-04-08T21:52:22.347Z,27.40
2023-04-08T21:54:52.738Z,26.20
2023-04-08T21:57:19.236Z,27.20
2023-04-08T21:59:45.857Z,27.30
2023-04-08T22:02:12.462Z,27.17
2023-04-08T22:04:39.084Z,27.67
2023-04-08T22:07:05.540Z,44.07
2023-04-08T22:09:32.314Z,27.17
2023-04-08T22:11:58.854Z,25.23
2023-04-08T22:14:25.275Z,27.20
2023-04-08T22:16:51.751Z,28.17
2023-04-08T22:19:18.224Z,27.47
2023-04-08T22:21:44.692Z,28.33
2023-04-08T22:24:11.245Z,27.57
2023-04-08T22:26:37.890Z,26.93
2023-04-08T22:29:04.449Z,28.00
2023-04-08T22:31:31.213Z,28.30
2023-04-08T22:33:57.698Z,28.47
2023-04-08T22:36:24.103Z,28.80
2023-04-08T22:38:50.844Z,31.90
2023-04-08T22:41:21.952Z,33.67
2023-04-08T22:43:49.508Z,31.30
2023-04-08T22:46:18.130Z,31.20
2023-04-08T22:48:45.104Z,31.50
2023-04-08T22:51:12.673Z,30.23
2023-04-08T22:53:39.228Z,30.10
2023-04-08T22:56:05.869Z,31.03
2023-04-08T22:58:32.440Z,31.83
2023-04-08T23:00:58.952Z,30.63
2023-04-08T23:03:25.553Z,32.23
2023-04-08T23:05:52.256Z,31.50
2023-04-08T23:08:18.670Z,31.23
2023-04-08T23:10:45.251Z,31.27
2023-04-08T23:13:11.881Z,31.17
2023-04-08T23:15:38.592Z,33.00
2023-04-08T23:18:05.078Z,32.40
2023-04-08T23:20:31.951Z,31.67
2023-04-08T23:22:58.376Z,30.03
2023-04-08T23:25:24.813Z,31.10
2023-04-08T23:27:51.237Z,32.00
2023-04-08T23:30:17.864Z,31.17
2023-04-08T23:32:44.344Z,29.93
2023-04-08T23:35:10.831Z,30.87
2023-04-08T23:37:37.263Z,30.90
2023-04-08T23:40:03.924Z,31.50
2023-04-08T23:42:30.601Z,30.67
2023-04-08T23:44:57.063Z,29.23
2023-04-08T23:47:23.568Z,30.10
2023-04-08T23:49:50.030Z,31.20
2023-04-08T23:52:16.639Z,29.00
2023-04-08T23:54:43.079Z,29.23
2023-04-08T23:57:09.568Z,29.90
2023-04-08T23:59:36.079Z,30.67
